Tutti
Shellharbour Hospital Airport YXSH Meteo
There is no TAF data available at YXSH. Showing TAF data for YSHL (3 mi O).
Previsione area Terminal WOL (nessun dato per YXSH)
| Here is the undecoded forecast: 2026/05/08 06:10 YSHL 080610Z 0808/0820 25008KT CAVOK RMK FM080800 MOD TURB BLW 5000FT TL081000 T 16 13 12 11 Q 1018 1020 1021 1022 |
There is no METAR data available at YXSH. Showing METAR data for YSHL (3 mi O).
Storico METAR WOL recente (nessun dato per YXSH)
| Date | Time (AEST) | Flight Rules | Wind Dir. | Speed | Type | Height AGL (ft) | Visibility | Temp (°C) | Temp (°F) | Dew Point (°C) | Dew Point (°F) | Rel. Humid. | Pressure | Density Altitude | Remarks |
|---|---|---|---|---|---|---|---|---|---|---|---|---|---|---|---|
| 08-mag | 20:00 | VFR | 270° | 15 kt | Broken |
8.300 |
10000 meters | 15° | 59° | 7° | 44° | 59% | 1020 mb | -170 ft | |
| 08-mag | 19:00 | VFR | 260° | 15 kt | Broken |
8.300 |
10000 meters | 16° | 60° | 7° | 44° | 55% | 1019 mb | -20 ft | |
| 08-mag | 18:00 | VFR | 260° | 15 kt | Scattered |
8.100 |
10000 meters | 16° | 60° | 7° | 44° | 55% | 1018 mb | 9 ft | |
| 08-mag | 17:00 | VFR | 270° | 16 kt | 10000 meters | 17° | 62° | 7° | 44° | 52% | 1017 mb | 159 ft | |||
| 08-mag | 16:00 | VFR | 270° | 17 kt | 10000 meters | 18° | 64° | 7° | 44° | 49% | 1016 mb | 309 ft | |||
| 08-mag | 15:00 | VFR | 270° | 19 kt | 10000 meters | 20° | 68° | 6° | 42° | 40% | 1015 mb | 578 ft | |||
| 08-mag | 14:00 | VFR | 260° | 19 kt | 10000 meters | 20° | 68° | 5° | 41° | 37% | 1015 mb | 578 ft | |||
| 08-mag | 13:01 | VFR | 260° | 18 kt | 10000 meters | 20° | 68° | 6° | 42° | 40% | 1015 mb | 578 ft | Wind gusting to 28 KT | ||
| 08-mag | 12:00 | VFR | 280° | 13 kt | 10000 meters | 19° | 66° | 6° | 42° | 43% | 1016 mb | 429 ft | |||
| 08-mag | 11:00 | VFR | 290° | 17 kt | 10000 meters | 18° | 64° | 6° | 42° | 45% | 1016 mb | 309 ft | |||
| 08-mag | 10:00 | VFR | 290° | 17 kt | 10000 meters | 17° | 62° | 5° | 41° | 45% | 1017 mb | 159 ft | |||
| 08-mag | 09:00 | VFR | 300° | 14 kt | 10000 meters | 16° | 60° | 6° | 42° | 51% | 1017 mb | 39 ft | Wind gusting to 25 KT | ||
| 08-mag | 08:00 | VFR | 280° | 13 kt | 10000 meters | 14° | 57° | 5° | 41° | 55% | 1017 mb | -201 ft | |||
| 08-mag | 07:00 | VFR | 280° | 22 kt | 10000 meters | 12° | 53° | 4° | 39° | 58% | 1016 mb | -411 ft | |||
| 08-mag | 06:00 | VFR | 280° | 21 kt | 10000 meters | 12° | 53° | 3° | 37° | 54% | 1016 mb | -411 ft | |||
| 08-mag | 05:00 | VFR | 270° | 24 kt | 10000 meters | 11° | 51° | 3° | 37° | 58% | 1016 mb | -531 ft | |||
| 08-mag | 04:00 | VFR | 260° | 22 kt | 10000 meters | 11° | 51° | 3° | 37° | 58% | 1016 mb | -531 ft | |||
| 08-mag | 03:00 | VFR | 260° | 21 kt | 10000 meters | 11° | 51° | 3° | 37° | 58% | 1016 mb | -531 ft | |||
| 08-mag | 02:00 | VFR | 260° | 20 kt | 10000 meters | 10° | 50° | 2° | 35° | 57% | 1017 mb | -681 ft | |||
| 08-mag | 01:00 | VFR | 260° | 18 kt | 10000 meters | 10° | 50° | 1° | 33° | 53% | 1018 mb | -711 ft | |||
| 08-mag | 00:00 | VFR | 270° | 20 kt | 10000 meters | 11° | 51° | 1° | 33° | 50% | 1018 mb | -591 ft | |||
| 07-mag | 23:00 | VFR | 260° | 18 kt | 10000 meters | 11° | 51° | 1° | 33° | 50% | 1018 mb | -591 ft | |||
| 07-mag | 22:00 | VFR | 260° | 17 kt | 10000 meters | 11° | 51° | 0° | 32° | 47% | 1018 mb | -591 ft | |||
| 07-mag | 21:00 | VFR | 260° | 16 kt | 10000 meters | 11° | 51° | 1° | 33° | 50% | 1017 mb | -561 ft |
Accedi
| Il tuo browser non è supportato. fai l'upgrade del tuo browser |
